sensor_id;sensor_type;location;lat;lon;timestamp;temperature;humidity
29345;DHT22;16339;48.748;2.222;2024-03-23T00:52:13;13.10;99.90
29345;DHT22;16339;48.748;2.222;2024-03-23T00:54:39;13.20;99.90
29345;DHT22;16339;48.748;2.222;2024-03-23T00:57:05;13.30;99.90
29345;DHT22;16339;48.748;2.222;2024-03-23T00:59:33;13.20;99.90
29345;DHT22;16339;48.748;2.222;2024-03-23T01:01:59;13.30;99.90
29345;DHT22;16339;48.748;2.222;2024-03-23T01:04:25;13.30;99.90
29345;DHT22;16339;48.748;2.222;2024-03-23T01:06:50;13.20;99.90
29345;DHT22;16339;48.748;2.222;2024-03-23T01:09:16;13.20;99.90
29345;DHT22;16339;48.748;2.222;2024-03-23T01:11:42;13.30;99.90
29345;DHT22;16339;48.748;2.222;2024-03-23T01:14:08;13.40;99.90
29345;DHT22;16339;48.748;2.222;2024-03-23T01:16:36;13.40;99.90
29345;DHT22;16339;48.748;2.222;2024-03-23T01:19:02;13.50;99.90
29345;DHT22;16339;48.748;2.222;2024-03-23T01:21:28;13.40;99.90
29345;DHT22;16339;48.748;2.222;2024-03-23T01:23:54;13.50;99.90
29345;DHT22;16339;48.748;2.222;2024-03-23T01:26:20;13.20;99.90
29345;DHT22;16339;48.748;2.222;2024-03-23T01:28:46;13.20;99.90
29345;DHT22;16339;48.748;2.222;2024-03-23T01:31:11;12.90;99.90
29345;DHT22;16339;48.748;2.222;2024-03-23T01:33:40;12.90;99.90
29345;DHT22;16339;48.748;2.222;2024-03-23T01:36:06;12.50;99.90
29345;DHT22;16339;48.748;2.222;2024-03-23T01:38:32;12.70;99.90
29345;DHT22;16339;48.748;2.222;2024-03-23T01:40:57;12.70;99.90
29345;DHT22;16339;48.748;2.222;2024-03-23T01:43:23;12.50;99.90
29345;DHT22;16339;48.748;2.222;2024-03-23T01:45:49;12.30;99.90
29345;DHT22;16339;48.748;2.222;2024-03-23T01:48:15;12.50;99.90
29345;DHT22;16339;48.748;2.222;2024-03-23T01:50:43;12.40;99.90
29345;DHT22;16339;48.748;2.222;2024-03-23T01:53:09;12.10;99.90
29345;DHT22;16339;48.748;2.222;2024-03-23T01:55:35;12.30;99.90
29345;DHT22;16339;48.748;2.222;2024-03-23T01:58:01;12.30;99.90
29345;DHT22;16339;48.748;2.222;2024-03-23T02:00:27;12.30;99.90
29345;DHT22;16339;48.748;2.222;2024-03-23T02:02:53;12.20;99.90
29345;DHT22;16339;48.748;2.222;2024-03-23T02:05:19;12.30;99.90
29345;DHT22;16339;48.748;2.222;2024-03-23T02:07:47;12.30;99.90
29345;DHT22;16339;48.748;2.222;2024-03-23T02:10:13;12.30;99.90
29345;DHT22;16339;48.748;2.222;2024-03-23T02:12:39;12.20;99.90
29345;DHT22;16339;48.748;2.222;2024-03-23T02:15:05;12.40;99.90
29345;DHT22;16339;48.748;2.222;2024-03-23T02:17:32;12.30;99.90
29345;DHT22;16339;48.748;2.222;2024-03-23T02:20:00;12.30;99.90
29345;DHT22;16339;48.748;2.222;2024-03-23T02:22:34;12.20;99.90
29345;DHT22;16339;48.748;2.222;2024-03-23T02:25:03;12.30;99.90
29345;DHT22;16339;48.748;2.222;2024-03-23T02:27:28;12.10;99.90
29345;DHT22;16339;48.748;2.222;2024-03-23T02:29:54;12.10;99.90
29345;DHT22;16339;48.748;2.222;2024-03-23T02:32:20;11.70;99.90
29345;DHT22;16339;48.748;2.222;2024-03-23T02:34:46;11.60;99.90
29345;DHT22;16339;48.748;2.222;2024-03-23T02:37:12;11.60;99.90
29345;DHT22;16339;48.748;2.222;2024-03-23T02:39:37;11.50;99.90
29345;DHT22;16339;48.748;2.222;2024-03-23T02:42:06;11.50;99.90
29345;DHT22;16339;48.748;2.222;2024-03-23T02:44:32;11.40;99.90
29345;DHT22;16339;48.748;2.222;2024-03-23T02:46:58;11.60;99.90
29345;DHT22;16339;48.748;2.222;2024-03-23T02:49:23;11.70;99.90
29345;DHT22;16339;48.748;2.222;2024-03-23T02:51:49;11.60;99.90
29345;DHT22;16339;48.748;2.222;2024-03-23T02:54:15;11.30;99.90
29345;DHT22;16339;48.748;2.222;2024-03-23T02:56:41;11.40;99.90
29345;DHT22;16339;48.748;2.222;2024-03-23T02:59:09;11.20;99.90
29345;DHT22;16339;48.748;2.222;2024-03-23T03:01:35;11.30;99.90
29345;DHT22;16339;48.748;2.222;2024-03-23T03:04:01;11.50;99.90
29345;DHT22;16339;48.748;2.222;2024-03-23T03:06:27;11.40;99.90
29345;DHT22;16339;48.748;2.222;2024-03-23T03:08:53;11.40;99.90
29345;DHT22;16339;48.748;2.222;2024-03-23T03:11:19;11.40;99.90
29345;DHT22;16339;48.748;2.222;2024-03-23T03:13:45;11.40;99.90
29345;DHT22;16339;48.748;2.222;2024-03-23T03:16:13;11.40;99.90
29345;DHT22;16339;48.748;2.222;2024-03-23T03:18:39;11.50;99.90
29345;DHT22;16339;48.748;2.222;2024-03-23T03:21:05;11.60;99.90
29345;DHT22;16339;48.748;2.222;2024-03-23T03:23:31;11.50;99.90
29345;DHT22;16339;48.748;2.222;2024-03-23T03:25:57;11.40;99.90
29345;DHT22;16339;48.748;2.222;2024-03-23T03:28:23;11.40;99.90
29345;DHT22;16339;48.748;2.222;2024-03-23T03:30:49;11.50;99.90
29345;DHT22;16339;48.748;2.222;2024-03-23T03:33:17;11.10;99.90
29345;DHT22;16339;48.748;2.222;2024-03-23T03:35:43;11.20;99.90
29345;DHT22;16339;48.748;2.222;2024-03-23T03:38:09;11.20;99.90
29345;DHT22;16339;48.748;2.222;2024-03-23T03:40:35;11.40;99.90
29345;DHT22;16339;48.748;2.222;2024-03-23T03:43:01;11.60;99.90
29345;DHT22;16339;48.748;2.222;2024-03-23T03:45:27;11.50;99.90
29345;DHT22;16339;48.748;2.222;2024-03-23T03:47:52;11.40;99.90
29345;DHT22;16339;48.748;2.222;2024-03-23T03:50:21;11.60;99.90
29345;DHT22;16339;48.748;2.222;2024-03-23T03:52:47;11.50;99.90
29345;DHT22;16339;48.748;2.222;2024-03-23T03:55:13;11.70;99.90
29345;DHT22;16339;48.748;2.222;2024-03-23T03:57:39;11.50;99.90
29345;DHT22;16339;48.748;2.222;2024-03-23T04:00:06;11.60;99.90
29345;DHT22;16339;48.748;2.222;2024-03-23T04:02:32;11.60;99.90
29345;DHT22;16339;48.748;2.222;2024-03-23T04:04:57;11.60;99.90
29345;DHT22;16339;48.748;2.222;2024-03-23T04:07:26;11.50;99.90
29345;DHT22;16339;48.748;2.222;2024-03-23T04:09:52;11.30;99.90
29345;DHT22;16339;48.748;2.222;2024-03-23T04:12:17;11.50;99.90
29345;DHT22;16339;48.748;2.222;2024-03-23T04:14:43;11.40;99.90
29345;DHT22;16339;48.748;2.222;2024-03-23T04:17:09;11.50;99.90
29345;DHT22;16339;48.748;2.222;2024-03-23T04:19:35;11.40;99.90
29345;DHT22;16339;48.748;2.222;2024-03-23T04:22:01;11.30;99.90
29345;DHT22;16339;48.748;2.222;2024-03-23T04:24:29;11.20;99.90
29345;DHT22;16339;48.748;2.222;2024-03-23T04:26:55;11.10;99.90
29345;DHT22;16339;48.748;2.222;2024-03-23T04:29:21;11.40;99.90
29345;DHT22;16339;48.748;2.222;2024-03-23T04:31:46;11.30;99.90
29345;DHT22;16339;48.748;2.222;2024-03-23T04:34:12;11.30;99.90
29345;DHT22;16339;48.748;2.222;2024-03-23T04:36:38;11.40;99.90
29345;DHT22;16339;48.748;2.222;2024-03-23T04:39:04;11.40;99.90
29345;DHT22;16339;48.748;2.222;2024-03-23T04:41:33;11.50;99.90
29345;DHT22;16339;48.748;2.222;2024-03-23T04:43:58;11.40;99.90
29345;DHT22;16339;48.748;2.222;2024-03-23T04:46:24;11.60;99.90
29345;DHT22;16339;48.748;2.222;2024-03-23T04:48:50;11.60;99.90
29345;DHT22;16339;48.748;2.222;2024-03-23T04:51:22;11.60;99.90
29345;DHT22;16339;48.748;2.222;2024-03-23T04:53:48;11.70;99.90
29345;DHT22;16339;48.748;2.222;2024-03-23T04:56:13;11.60;99.90
29345;DHT22;16339;48.748;2.222;2024-03-23T04:58:42;11.60;99.90
29345;DHT22;16339;48.748;2.222;2024-03-23T05:01:08;11.50;99.90
29345;DHT22;16339;48.748;2.222;2024-03-23T05:03:34;11.30;99.90
29345;DHT22;16339;48.748;2.222;2024-03-23T05:06:00;11.50;99.90
29345;DHT22;16339;48.748;2.222;2024-03-23T05:08:26;11.30;99.90
29345;DHT22;16339;48.748;2.222;2024-03-23T05:10:51;11.40;99.90
29345;DHT22;16339;48.748;2.222;2024-03-23T05:13:17;11.40;99.90
29345;DHT22;16339;48.748;2.222;2024-03-23T05:15:50;11.40;99.90
29345;DHT22;16339;48.748;2.222;2024-03-23T05:18:16;11.50;99.90
29345;DHT22;16339;48.748;2.222;2024-03-23T05:20:42;11.40;99.90
29345;DHT22;16339;48.748;2.222;2024-03-23T05:23:07;11.30;99.90
29345;DHT22;16339;48.748;2.222;2024-03-23T05:25:33;11.40;99.90
29345;DHT22;16339;48.748;2.222;2024-03-23T05:27:59;11.60;99.90
29345;DHT22;16339;48.748;2.222;2024-03-23T05:30:27;11.60;99.90
29345;DHT22;16339;48.748;2.222;2024-03-23T05:32:56;11.50;99.90
29345;DHT22;16339;48.748;2.222;2024-03-23T05:35:22;11.50;99.90
29345;DHT22;16339;48.748;2.222;2024-03-23T05:37:51;11.70;99.90
29345;DHT22;16339;48.748;2.222;2024-03-23T05:40:17;11.70;99.90
29345;DHT22;16339;48.748;2.222;2024-03-23T05:42:43;11.60;99.90
29345;DHT22;16339;48.748;2.222;2024-03-23T05:45:09;11.60;99.90
29345;DHT22;16339;48.748;2.222;2024-03-23T05:47:35;11.60;99.90
29345;DHT22;16339;48.748;2.222;2024-03-23T05:50:03;11.50;99.90
29345;DHT22;16339;48.748;2.222;2024-03-23T05:52:29;11.50;99.90
29345;DHT22;16339;48.748;2.222;2024-03-23T05:54:55;11.30;99.90
29345;DHT22;16339;48.748;2.222;2024-03-23T05:57:21;11.50;99.90
29345;DHT22;16339;48.748;2.222;2024-03-23T05:59:47;11.30;99.90
29345;DHT22;16339;48.748;2.222;2024-03-23T06:02:12;11.10;99.90
29345;DHT22;16339;48.748;2.222;2024-03-23T06:04:38;11.00;99.90
29345;DHT22;16339;48.748;2.222;2024-03-23T06:07:07;11.10;99.90
29345;DHT22;16339;48.748;2.222;2024-03-23T06:09:32;11.00;99.90
29345;DHT22;16339;48.748;2.222;2024-03-23T06:11:58;10.90;99.90
29345;DHT22;16339;48.748;2.222;2024-03-23T06:14:24;10.90;99.90
29345;DHT22;16339;48.748;2.222;2024-03-23T06:16:50;11.00;99.90
29345;DHT22;16339;48.748;2.222;2024-03-23T06:19:16;11.00;99.90
29345;DHT22;16339;48.748;2.222;2024-03-23T06:21:42;11.10;99.90
29345;DHT22;16339;48.748;2.222;2024-03-23T06:24:11;11.00;99.90
29345;DHT22;16339;48.748;2.222;2024-03-23T06:26:37;11.10;99.90
29345;DHT22;16339;48.748;2.222;2024-03-23T06:29:03;11.00;99.90
29345;DHT22;16339;48.748;2.222;2024-03-23T06:31:28;11.20;99.90
29345;DHT22;16339;48.748;2.222;2024-03-23T06:33:54;11.20;99.90
29345;DHT22;16339;48.748;2.222;2024-03-23T06:36:20;11.20;99.90
29345;DHT22;16339;48.748;2.222;2024-03-23T06:38:46;11.20;99.90
29345;DHT22;16339;48.748;2.222;2024-03-23T06:41:14;11.30;99.90
29345;DHT22;16339;48.748;2.222;2024-03-23T06:43:40;11.30;99.90
29345;DHT22;16339;48.748;2.222;2024-03-23T06:46:06;11.50;99.90
29345;DHT22;16339;48.748;2.222;2024-03-23T06:48:32;11.50;99.90
29345;DHT22;16339;48.748;2.222;2024-03-23T06:50:58;11.60;99.90
29345;DHT22;16339;48.748;2.222;2024-03-23T06:53:24;11.60;99.90
29345;DHT22;16339;48.748;2.222;2024-03-23T06:55:50;11.60;99.90
29345;DHT22;16339;48.748;2.222;2024-03-23T06:58:18;11.70;99.90
29345;DHT22;16339;48.748;2.222;2024-03-23T07:00:44;11.70;99.90
29345;DHT22;16339;48.748;2.222;2024-03-23T07:03:10;11.80;99.90
29345;DHT22;16339;48.748;2.222;2024-03-23T07:05:36;11.90;99.90
29345;DHT22;16339;48.748;2.222;2024-03-23T07:08:02;11.80;99.90
29345;DHT22;16339;48.748;2.222;2024-03-23T07:10:27;11.90;99.90
29345;DHT22;16339;48.748;2.222;2024-03-23T07:12:53;11.90;99.90
29345;DHT22;16339;48.748;2.222;2024-03-23T07:15:22;11.90;99.90
29345;DHT22;16339;48.748;2.222;2024-03-23T07:17:47;11.80;99.90
29345;DHT22;16339;48.748;2.222;2024-03-23T07:20:13;11.70;99.90
29345;DHT22;16339;48.748;2.222;2024-03-23T07:22:39;11.70;99.90
29345;DHT22;16339;48.748;2.222;2024-03-23T07:25:05;11.30;99.90
29345;DHT22;16339;48.748;2.222;2024-03-23T07:27:31;11.20;99.90
29345;DHT22;16339;48.748;2.222;2024-03-23T07:29:57;11.10;99.90
29345;DHT22;16339;48.748;2.222;2024-03-23T07:32:26;11.20;99.90
29345;DHT22;16339;48.748;2.222;2024-03-23T07:34:52;11.10;99.90
29345;DHT22;16339;48.748;2.222;2024-03-23T07:37:18;11.10;99.90
29345;DHT22;16339;48.748;2.222;2024-03-23T07:39:44;11.30;99.90
29345;DHT22;16339;48.748;2.222;2024-03-23T07:42:09;11.30;99.90
29345;DHT22;16339;48.748;2.222;2024-03-23T07:44:35;11.30;99.90
29345;DHT22;16339;48.748;2.222;2024-03-23T07:47:01;11.20;99.90
29345;DHT22;16339;48.748;2.222;2024-03-23T07:49:29;10.90;99.90
29345;DHT22;16339;48.748;2.222;2024-03-23T07:51:55;10.80;99.90
29345;DHT22;16339;48.748;2.222;2024-03-23T07:54:21;10.70;99.90
29345;DHT22;16339;48.748;2.222;2024-03-23T07:56:47;10.70;99.90
29345;DHT22;16339;48.748;2.222;2024-03-23T07:59:13;10.90;99.90
29345;DHT22;16339;48.748;2.222;2024-03-23T08:01:39;11.00;99.90
29345;DHT22;16339;48.748;2.222;2024-03-23T08:04:05;11.20;99.90
29345;DHT22;16339;48.748;2.222;2024-03-23T08:06:33;11.40;99.90
29345;DHT22;16339;48.748;2.222;2024-03-23T08:08:59;11.40;99.90
29345;DHT22;16339;48.748;2.222;2024-03-23T08:11:25;11.40;99.90
29345;DHT22;16339;48.748;2.222;2024-03-23T08:13:51;11.10;99.90
29345;DHT22;16339;48.748;2.222;2024-03-23T08:16:17;11.30;99.90
29345;DHT22;16339;48.748;2.222;2024-03-23T08:18:43;11.20;99.90
29345;DHT22;16339;48.748;2.222;2024-03-23T08:21:09;11.40;99.90
29345;DHT22;16339;48.748;2.222;2024-03-23T08:23:38;11.70;99.90
29345;DHT22;16339;48.748;2.222;2024-03-23T08:26:04;11.70;99.90
29345;DHT22;16339;48.748;2.222;2024-03-23T08:28:30;11.50;99.90
29345;DHT22;16339;48.748;2.222;2024-03-23T08:30:56;11.20;99.90
29345;DHT22;16339;48.748;2.222;2024-03-23T08:33:22;11.20;99.90
29345;DHT22;16339;48.748;2.222;2024-03-23T08:35:55;11.40;99.90
29345;DHT22;16339;48.748;2.222;2024-03-23T08:38:21;11.70;99.90
29345;DHT22;16339;48.748;2.222;2024-03-23T08:40:55;11.50;99.90
29345;DHT22;16339;48.748;2.222;2024-03-23T08:43:21;11.50;99.90
29345;DHT22;16339;48.748;2.222;2024-03-23T08:45:47;11.50;99.90
29345;DHT22;16339;48.748;2.222;2024-03-23T08:48:13;11.50;99.90
29345;DHT22;16339;48.748;2.222;2024-03-23T08:50:39;11.60;99.90
29345;DHT22;16339;48.748;2.222;2024-03-23T08:53:04;11.60;99.90
29345;DHT22;16339;48.748;2.222;2024-03-23T08:55:30;11.90;99.90
29345;DHT22;16339;48.748;2.222;2024-03-23T08:57:59;11.90;99.90
29345;DHT22;16339;48.748;2.222;2024-03-23T09:00:25;12.00;99.90
29345;DHT22;16339;48.748;2.222;2024-03-23T09:02:51;12.00;99.90
29345;DHT22;16339;48.748;2.222;2024-03-23T09:05:17;12.10;99.90
29345;DHT22;16339;48.748;2.222;2024-03-23T09:07:42;11.90;99.90
29345;DHT22;16339;48.748;2.222;2024-03-23T09:10:08;11.90;99.90
29345;DHT22;16339;48.748;2.222;2024-03-23T09:12:34;11.90;99.90
29345;DHT22;16339;48.748;2.222;2024-03-23T09:15:03;11.90;99.90
29345;DHT22;16339;48.748;2.222;2024-03-23T09:17:29;11.80;99.90
29345;DHT22;16339;48.748;2.222;2024-03-23T09:19:54;11.60;99.90
29345;DHT22;16339;48.748;2.222;2024-03-23T09:22:20;11.70;99.90
29345;DHT22;16339;48.748;2.222;2024-03-23T09:24:46;11.80;99.90
29345;DHT22;16339;48.748;2.222;2024-03-23T09:27:12;12.00;99.90
29345;DHT22;16339;48.748;2.222;2024-03-23T09:29:38;12.20;99.90
29345;DHT22;16339;48.748;2.222;2024-03-23T09:32:06;12.00;99.90
29345;DHT22;16339;48.748;2.222;2024-03-23T09:34:32;12.10;99.90
29345;DHT22;16339;48.748;2.222;2024-03-23T09:36:59;12.40;99.90
29345;DHT22;16339;48.748;2.222;2024-03-23T09:39:25;12.50;99.90
29345;DHT22;16339;48.748;2.222;2024-03-23T09:41:51;12.20;99.90
29345;DHT22;16339;48.748;2.222;2024-03-23T09:44:21;12.40;99.90
29345;DHT22;16339;48.748;2.222;2024-03-23T09:46:47;12.40;99.90
29345;DHT22;16339;48.748;2.222;2024-03-23T09:49:16;12.40;99.90
29345;DHT22;16339;48.748;2.222;2024-03-23T09:51:41;12.80;99.90
29345;DHT22;16339;48.748;2.222;2024-03-23T09:54:07;12.80;99.90
29345;DHT22;16339;48.748;2.222;2024-03-23T09:56:33;12.60;99.90
29345;DHT22;16339;48.748;2.222;2024-03-23T09:59:02;12.80;99.90
29345;DHT22;16339;48.748;2.222;2024-03-23T10:01:29;13.00;99.90
29345;DHT22;16339;48.748;2.222;2024-03-23T10:03:55;12.80;99.90
29345;DHT22;16339;48.748;2.222;2024-03-23T10:06:24;12.70;99.90
29345;DHT22;16339;48.748;2.222;2024-03-23T10:08:50;12.60;99.90
29345;DHT22;16339;48.748;2.222;2024-03-23T10:11:16;12.30;99.90
29345;DHT22;16339;48.748;2.222;2024-03-23T10:13:43;12.20;99.90
29345;DHT22;16339;48.748;2.222;2024-03-23T10:16:09;12.40;99.90
29345;DHT22;16339;48.748;2.222;2024-03-23T10:18:37;12.30;99.90
29345;DHT22;16339;48.748;2.222;2024-03-23T10:21:06;12.40;99.90
29345;DHT22;16339;48.748;2.222;2024-03-23T10:23:35;12.70;99.90
29345;DHT22;16339;48.748;2.222;2024-03-23T10:26:12;12.70;99.90
29345;DHT22;16339;48.748;2.222;2024-03-23T10:28:37;12.40;99.90
29345;DHT22;16339;48.748;2.222;2024-03-23T10:31:15;12.70;99.90
29345;DHT22;16339;48.748;2.222;2024-03-23T10:33:44;12.60;99.90
29345;DHT22;16339;48.748;2.222;2024-03-23T10:36:10;12.60;99.90
29345;DHT22;16339;48.748;2.222;2024-03-23T10:38:38;12.50;99.90
29345;DHT22;16339;48.748;2.222;2024-03-23T10:41:05;12.80;99.90
29345;DHT22;16339;48.748;2.222;2024-03-23T10:43:31;12.70;99.40
29345;DHT22;16339;48.748;2.222;2024-03-23T10:45:58;12.70;99.70
29345;DHT22;16339;48.748;2.222;2024-03-23T10:48:24;12.90;99.80
29345;DHT22;16339;48.748;2.222;2024-03-23T10:50:50;13.20;99.90
29345;DHT22;16339;48.748;2.222;2024-03-23T10:53:16;13.20;98.30
29345;DHT22;16339;48.748;2.222;2024-03-23T10:55:45;12.90;98.20
29345;DHT22;16339;48.748;2.222;2024-03-23T10:58:11;12.60;99.20
29345;DHT22;16339;48.748;2.222;2024-03-23T11:00:38;12.70;99.40
29345;DHT22;16339;48.748;2.222;2024-03-23T11:05:46;12.70;99.80
29345;DHT22;16339;48.748;2.222;2024-03-23T11:08:12;12.80;98.10
29345;DHT22;16339;48.748;2.222;2024-03-23T11:10:59;12.60;97.60
29345;DHT22;16339;48.748;2.222;2024-03-23T11:13:37;12.50;97.70
29345;DHT22;16339;48.748;2.222;2024-03-23T11:16:15;12.60;97.60
29345;DHT22;16339;48.748;2.222;2024-03-23T11:18:50;12.60;97.70
29345;DHT22;16339;48.748;2.222;2024-03-23T11:42:32;12.70;96.60
29345;DHT22;16339;48.748;2.222;2024-03-23T11:44:58;12.80;96.20
29345;DHT22;16339;48.748;2.222;2024-03-23T11:47:23;13.00;96.30
29345;DHT22;16339;48.748;2.222;2024-03-23T11:49:49;13.20;95.20
29345;DHT22;16339;48.748;2.222;2024-03-23T11:52:15;13.40;94.80
29345;DHT22;16339;48.748;2.222;2024-03-23T11:54:46;13.60;95.60
29345;DHT22;16339;48.748;2.222;2024-03-23T12:00:23;13.90;94.90
29345;DHT22;16339;48.748;2.222;2024-03-23T12:02:49;13.80;94.20
29345;DHT22;16339;48.748;2.222;2024-03-23T12:05:15;13.90;93.40
29345;DHT22;16339;48.748;2.222;2024-03-23T12:07:41;13.50;94.30
29345;DHT22;16339;48.748;2.222;2024-03-23T12:10:07;13.50;95.10
29345;DHT22;16339;48.748;2.222;2024-03-23T12:12:33;13.60;96.10
29345;DHT22;16339;48.748;2.222;2024-03-23T12:15:04;13.40;96.40
29345;DHT22;16339;48.748;2.222;2024-03-23T12:17:36;13.20;99.10
29345;DHT22;16339;48.748;2.222;2024-03-23T12:45:16;12.90;99.90
29345;DHT22;16339;48.748;2.222;2024-03-23T12:47:42;12.70;99.20
29345;DHT22;16339;48.748;2.222;2024-03-23T13:02:04;13.20;97.20
29345;DHT22;16339;48.748;2.222;2024-03-23T13:04:48;13.30;98.10
29345;DHT22;16339;48.748;2.222;2024-03-23T13:23:35;13.80;93.80
29345;DHT22;16339;48.748;2.222;2024-03-23T13:26:03;14.70;95.80
29345;DHT22;16339;48.748;2.222;2024-03-23T13:28:29;14.40;94.70
29345;DHT22;16339;48.748;2.222;2024-03-23T13:31:11;14.30;94.50
29345;DHT22;16339;48.748;2.222;2024-03-23T13:33:38;14.10;94.40
29345;DHT22;16339;48.748;2.222;2024-03-23T13:36:07;13.80;94.00
29345;DHT22;16339;48.748;2.222;2024-03-23T13:38:38;13.80;94.20
29345;DHT22;16339;48.748;2.222;2024-03-23T13:41:04;13.50;94.50
29345;DHT22;16339;48.748;2.222;2024-03-23T13:43:30;13.10;95.60
29345;DHT22;16339;48.748;2.222;2024-03-23T13:46:29;12.30;99.90
29345;DHT22;16339;48.748;2.222;2024-03-23T13:48:47;11.20;99.90
29345;DHT22;16339;48.748;2.222;2024-03-23T13:51:13;10.50;99.90
29345;DHT22;16339;48.748;2.222;2024-03-23T13:53:57;10.20;99.90
29345;DHT22;16339;48.748;2.222;2024-03-23T13:56:23;10.30;99.90
29345;DHT22;16339;48.748;2.222;2024-03-23T13:58:49;10.70;99.90
29345;DHT22;16339;48.748;2.222;2024-03-23T14:01:53;11.10;99.90
29345;DHT22;16339;48.748;2.222;2024-03-23T14:04:13;11.60;99.90
29345;DHT22;16339;48.748;2.222;2024-03-23T14:06:39;12.00;99.90
29345;DHT22;16339;48.748;2.222;2024-03-23T14:09:07;12.20;99.90
29345;DHT22;16339;48.748;2.222;2024-03-23T14:11:34;12.50;99.90
29345;DHT22;16339;48.748;2.222;2024-03-23T14:14:00;12.50;99.90
29345;DHT22;16339;48.748;2.222;2024-03-23T14:16:28;12.70;99.90
29345;DHT22;16339;48.748;2.222;2024-03-23T14:19:00;12.70;99.90
29345;DHT22;16339;48.748;2.222;2024-03-23T14:21:28;12.80;99.90
29345;DHT22;16339;48.748;2.222;2024-03-23T14:23:56;12.80;99.90
29345;DHT22;16339;48.748;2.222;2024-03-23T14:26:24;13.00;99.90
29345;DHT22;16339;48.748;2.222;2024-03-23T14:28:53;13.10;99.90
29345;DHT22;16339;48.748;2.222;2024-03-23T14:31:19;13.20;99.90
29345;DHT22;16339;48.748;2.222;2024-03-23T14:33:48;13.40;99.90
29345;DHT22;16339;48.748;2.222;2024-03-23T14:36:16;13.50;99.90
29345;DHT22;16339;48.748;2.222;2024-03-23T14:38:42;13.60;99.90
29345;DHT22;16339;48.748;2.222;2024-03-23T14:41:08;13.60;99.90
29345;DHT22;16339;48.748;2.222;2024-03-23T14:43:37;13.30;99.90
29345;DHT22;16339;48.748;2.222;2024-03-23T14:46:07;13.30;99.90
29345;DHT22;16339;48.748;2.222;2024-03-23T14:48:33;13.40;99.90
29345;DHT22;16339;48.748;2.222;2024-03-23T14:51:04;13.40;99.90
29345;DHT22;16339;48.748;2.222;2024-03-23T14:53:36;13.40;99.90
29345;DHT22;16339;48.748;2.222;2024-03-23T14:56:03;13.50;99.90
29345;DHT22;16339;48.748;2.222;2024-03-23T14:58:33;13.50;99.90
29345;DHT22;16339;48.748;2.222;2024-03-23T15:01:07;13.40;99.90
29345;DHT22;16339;48.748;2.222;2024-03-23T15:03:36;13.30;99.90
29345;DHT22;16339;48.748;2.222;2024-03-23T15:06:02;13.10;99.90
29345;DHT22;16339;48.748;2.222;2024-03-23T15:08:34;13.00;99.90
29345;DHT22;16339;48.748;2.222;2024-03-23T15:11:08;12.90;99.90
29345;DHT22;16339;48.748;2.222;2024-03-23T15:13:37;12.80;99.90
29345;DHT22;16339;48.748;2.222;2024-03-23T15:16:07;12.80;99.90
29345;DHT22;16339;48.748;2.222;2024-03-23T15:21:16;13.00;99.90
29345;DHT22;16339;48.748;2.222;2024-03-23T15:23:42;12.90;99.90
29345;DHT22;16339;48.748;2.222;2024-03-23T15:26:11;12.70;99.90
29345;DHT22;16339;48.748;2.222;2024-03-23T15:28:37;12.50;99.90
29345;DHT22;16339;48.748;2.222;2024-03-23T15:31:16;12.60;99.90
29345;DHT22;16339;48.748;2.222;2024-03-23T15:36:34;12.40;99.90
29345;DHT22;16339;48.748;2.222;2024-03-23T15:39:00;12.60;99.90
29345;DHT22;16339;48.748;2.222;2024-03-23T15:41:32;12.50;99.90
29345;DHT22;16339;48.748;2.222;2024-03-23T15:43:58;12.30;99.90
29345;DHT22;16339;48.748;2.222;2024-03-23T15:46:29;11.50;99.90
29345;DHT22;16339;48.748;2.222;2024-03-23T15:49:01;10.70;99.90
29345;DHT22;16339;48.748;2.222;2024-03-23T15:51:33;10.50;99.90
29345;DHT22;16339;48.748;2.222;2024-03-23T15:54:05;9.90;99.90
29345;DHT22;16339;48.748;2.222;2024-03-23T15:56:32;10.00;99.90
29345;DHT22;16339;48.748;2.222;2024-03-23T15:59:01;10.10;99.90
29345;DHT22;16339;48.748;2.222;2024-03-23T16:04:22;10.00;99.90
29345;DHT22;16339;48.748;2.222;2024-03-23T16:07:02;10.20;99.90
29345;DHT22;16339;48.748;2.222;2024-03-23T16:10:30;10.30;99.90
29345;DHT22;16339;48.748;2.222;2024-03-23T16:12:17;10.30;99.90
29345;DHT22;16339;48.748;2.222;2024-03-23T16:14:48;10.40;99.90
29345;DHT22;16339;48.748;2.222;2024-03-23T16:17:16;10.60;99.90
29345;DHT22;16339;48.748;2.222;2024-03-23T16:19:47;10.80;99.90
29345;DHT22;16339;48.748;2.222;2024-03-23T16:22:22;11.00;99.90
29345;DHT22;16339;48.748;2.222;2024-03-23T16:24:50;11.10;99.90
29345;DHT22;16339;48.748;2.222;2024-03-23T16:27:15;11.20;99.90
29345;DHT22;16339;48.748;2.222;2024-03-23T16:29:47;11.00;99.90
29345;DHT22;16339;48.748;2.222;2024-03-23T16:32:15;11.10;99.90
29345;DHT22;16339;48.748;2.222;2024-03-23T16:34:41;11.10;99.90
29345;DHT22;16339;48.748;2.222;2024-03-23T16:37:11;11.10;99.90
29345;DHT22;16339;48.748;2.222;2024-03-23T16:39:37;11.10;99.90
29345;DHT22;16339;48.748;2.222;2024-03-23T16:42:06;10.70;99.90
29345;DHT22;16339;48.748;2.222;2024-03-23T16:44:36;10.60;99.90
29345;DHT22;16339;48.748;2.222;2024-03-23T16:47:26;10.30;99.90
29345;DHT22;16339;48.748;2.222;2024-03-23T16:50:01;10.00;99.90
29345;DHT22;16339;48.748;2.222;2024-03-23T16:58:25;9.30;99.90
29345;DHT22;16339;48.748;2.222;2024-03-23T17:00:51;9.60;99.90
29345;DHT22;16339;48.748;2.222;2024-03-23T17:03:26;9.60;99.90
29345;DHT22;16339;48.748;2.222;2024-03-23T17:05:51;9.30;99.90
29345;DHT22;16339;48.748;2.222;2024-03-23T17:08:17;9.20;99.90
29345;DHT22;16339;48.748;2.222;2024-03-23T17:10:45;9.60;99.90
29345;DHT22;16339;48.748;2.222;2024-03-23T17:13:13;9.70;99.90
29345;DHT22;16339;48.748;2.222;2024-03-23T17:15:46;9.60;99.90
29345;DHT22;16339;48.748;2.222;2024-03-23T17:18:12;9.50;99.90
29345;DHT22;16339;48.748;2.222;2024-03-23T17:20:44;9.50;99.90
29345;DHT22;16339;48.748;2.222;2024-03-23T17:23:21;9.30;99.90
29345;DHT22;16339;48.748;2.222;2024-03-23T17:25:56;9.40;99.90
29345;DHT22;16339;48.748;2.222;2024-03-23T17:28:32;9.50;99.90
29345;DHT22;16339;48.748;2.222;2024-03-23T17:31:00;9.60;99.90
29345;DHT22;16339;48.748;2.222;2024-03-23T17:33:26;9.90;99.90
29345;DHT22;16339;48.748;2.222;2024-03-23T17:36:15;10.20;99.90
29345;DHT22;16339;48.748;2.222;2024-03-23T17:38:50;10.20;99.90
29345;DHT22;16339;48.748;2.222;2024-03-23T17:41:25;10.20;99.90
29345;DHT22;16339;48.748;2.222;2024-03-23T17:43:58;10.20;99.90
29345;DHT22;16339;48.748;2.222;2024-03-23T17:46:25;10.40;99.90
29345;DHT22;16339;48.748;2.222;2024-03-23T17:48:54;10.50;99.90
29345;DHT22;16339;48.748;2.222;2024-03-23T17:54:09;10.70;99.90
29345;DHT22;16339;48.748;2.222;2024-03-23T17:56:35;10.80;99.90
29345;DHT22;16339;48.748;2.222;2024-03-23T17:59:12;10.70;99.90
29345;DHT22;16339;48.748;2.222;2024-03-23T18:01:49;10.80;99.90
29345;DHT22;16339;48.748;2.222;2024-03-23T18:04:21;10.80;99.90